sensor_id;sensor_type;location;lat;lon;timestamp;P1;durP1;ratioP1;P2;durP2;ratioP2
67049;SDS011;53955;52.442;13.284;2023-07-22T00:02:10;4.32;;;3.47;;
67049;SDS011;53955;52.442;13.284;2023-07-22T00:04:36;5.60;;;3.00;;
67049;SDS011;53955;52.442;13.284;2023-07-22T00:07:03;4.70;;;3.40;;
67049;SDS011;53955;52.442;13.284;2023-07-22T00:09:32;6.22;;;3.60;;
67049;SDS011;53955;52.442;13.284;2023-07-22T00:12:03;4.85;;;3.45;;
67049;SDS011;53955;52.442;13.284;2023-07-22T00:14:30;4.15;;;3.40;;
67049;SDS011;53955;52.442;13.284;2023-07-22T00:16:57;4.22;;;3.33;;
67049;SDS011;53955;52.442;13.284;2023-07-22T00:19:23;5.05;;;3.28;;
67049;SDS011;53955;52.442;13.284;2023-07-22T00:21:50;4.20;;;3.50;;
67049;SDS011;53955;52.442;13.284;2023-07-22T00:24:17;3.95;;;2.88;;
67049;SDS011;53955;52.442;13.284;2023-07-22T00:26:43;5.30;;;3.55;;
67049;SDS011;53955;52.442;13.284;2023-07-22T00:29:11;4.82;;;3.33;;
67049;SDS011;53955;52.442;13.284;2023-07-22T00:31:38;4.78;;;3.53;;
67049;SDS011;53955;52.442;13.284;2023-07-22T00:34:06;5.07;;;3.58;;
67049;SDS011;53955;52.442;13.284;2023-07-22T00:36:33;4.10;;;3.10;;
67049;SDS011;53955;52.442;13.284;2023-07-22T00:39:00;5.57;;;3.40;;
67049;SDS011;53955;52.442;13.284;2023-07-22T00:41:27;5.25;;;3.50;;
67049;SDS011;53955;52.442;13.284;2023-07-22T00:43:54;4.18;;;3.10;;
67049;SDS011;53955;52.442;13.284;2023-07-22T00:46:22;4.75;;;3.33;;
67049;SDS011;53955;52.442;13.284;2023-07-22T00:48:49;4.18;;;3.20;;
67049;SDS011;53955;52.442;13.284;2023-07-22T00:51:17;4.57;;;3.17;;
67049;SDS011;53955;52.442;13.284;2023-07-22T00:53:44;7.55;;;3.55;;
67049;SDS011;53955;52.442;13.284;2023-07-22T00:56:10;5.25;;;3.40;;
67049;SDS011;53955;52.442;13.284;2023-07-22T00:58:37;6.78;;;3.60;;
67049;SDS011;53955;52.442;13.284;2023-07-22T01:01:04;4.88;;;3.72;;
67049;SDS011;53955;52.442;13.284;2023-07-22T01:03:32;4.07;;;3.25;;
67049;SDS011;53955;52.442;13.284;2023-07-22T01:05:58;4.40;;;3.20;;
67049;SDS011;53955;52.442;13.284;2023-07-22T01:08:25;5.68;;;4.00;;
67049;SDS011;53955;52.442;13.284;2023-07-22T01:10:52;5.22;;;3.70;;
67049;SDS011;53955;52.442;13.284;2023-07-22T01:13:19;7.40;;;4.05;;
67049;SDS011;53955;52.442;13.284;2023-07-22T01:15:46;5.05;;;3.63;;
67049;SDS011;53955;52.442;13.284;2023-07-22T01:18:13;5.68;;;3.78;;
67049;SDS011;53955;52.442;13.284;2023-07-22T01:20:41;6.35;;;4.00;;
67049;SDS011;53955;52.442;13.284;2023-07-22T01:23:10;6.95;;;3.83;;
67049;SDS011;53955;52.442;13.284;2023-07-22T01:25:36;6.18;;;3.75;;
67049;SDS011;53955;52.442;13.284;2023-07-22T01:28:03;5.00;;;3.47;;
67049;SDS011;53955;52.442;13.284;2023-07-22T01:30:35;5.63;;;4.10;;
67049;SDS011;53955;52.442;13.284;2023-07-22T01:33:02;8.15;;;3.78;;
67049;SDS011;53955;52.442;13.284;2023-07-22T01:35:29;5.70;;;3.90;;
67049;SDS011;53955;52.442;13.284;2023-07-22T01:37:55;6.30;;;3.58;;
67049;SDS011;53955;52.442;13.284;2023-07-22T01:40:24;5.75;;;4.05;;
67049;SDS011;53955;52.442;13.284;2023-07-22T01:42:51;4.78;;;3.78;;
67049;SDS011;53955;52.442;13.284;2023-07-22T01:45:18;5.60;;;4.32;;
67049;SDS011;53955;52.442;13.284;2023-07-22T01:47:44;6.30;;;3.97;;
67049;SDS011;53955;52.442;13.284;2023-07-22T01:50:11;5.97;;;4.28;;
67049;SDS011;53955;52.442;13.284;2023-07-22T01:52:38;5.57;;;3.70;;
67049;SDS011;53955;52.442;13.284;2023-07-22T01:55:05;5.78;;;4.18;;
67049;SDS011;53955;52.442;13.284;2023-07-22T01:57:37;5.07;;;3.40;;
67049;SDS011;53955;52.442;13.284;2023-07-22T02:00:04;4.40;;;3.25;;
67049;SDS011;53955;52.442;13.284;2023-07-22T02:02:32;11.52;;;3.70;;
67049;SDS011;53955;52.442;13.284;2023-07-22T02:04:59;12.95;;;3.78;;
67049;SDS011;53955;52.442;13.284;2023-07-22T02:07:26;5.38;;;4.03;;
67049;SDS011;53955;52.442;13.284;2023-07-22T02:09:54;4.13;;;3.47;;
67049;SDS011;53955;52.442;13.284;2023-07-22T02:12:21;4.65;;;4.18;;
67049;SDS011;53955;52.442;13.284;2023-07-22T02:14:49;5.93;;;3.90;;
67049;SDS011;53955;52.442;13.284;2023-07-22T02:17:15;6.40;;;4.55;;
67049;SDS011;53955;52.442;13.284;2023-07-22T02:19:42;4.50;;;3.40;;
67049;SDS011;53955;52.442;13.284;2023-07-22T02:22:09;5.75;;;3.72;;
67049;SDS011;53955;52.442;13.284;2023-07-22T02:24:35;4.60;;;3.60;;
67049;SDS011;53955;52.442;13.284;2023-07-22T02:27:02;6.80;;;4.10;;
67049;SDS011;53955;52.442;13.284;2023-07-22T02:29:29;5.40;;;3.65;;
67049;SDS011;53955;52.442;13.284;2023-07-22T02:31:58;6.00;;;4.00;;
67049;SDS011;53955;52.442;13.284;2023-07-22T02:34:24;5.35;;;3.67;;
67049;SDS011;53955;52.442;13.284;2023-07-22T02:36:51;10.77;;;4.47;;
67049;SDS011;53955;52.442;13.284;2023-07-22T02:39:17;6.60;;;4.15;;
67049;SDS011;53955;52.442;13.284;2023-07-22T02:41:44;5.20;;;3.88;;
67049;SDS011;53955;52.442;13.284;2023-07-22T02:44:10;6.55;;;3.90;;
67049;SDS011;53955;52.442;13.284;2023-07-22T02:46:37;5.13;;;3.55;;
67049;SDS011;53955;52.442;13.284;2023-07-22T02:49:05;5.05;;;3.50;;
67049;SDS011;53955;52.442;13.284;2023-07-22T02:51:32;6.82;;;3.35;;
67049;SDS011;53955;52.442;13.284;2023-07-22T02:53:59;4.22;;;3.60;;
67049;SDS011;53955;52.442;13.284;2023-07-22T02:56:25;6.10;;;3.33;;
67049;SDS011;53955;52.442;13.284;2023-07-22T02:58:52;6.22;;;3.50;;
67049;SDS011;53955;52.442;13.284;2023-07-22T03:01:19;5.43;;;3.20;;
67049;SDS011;53955;52.442;13.284;2023-07-22T03:03:45;5.07;;;3.42;;
67049;SDS011;53955;52.442;13.284;2023-07-22T03:06:13;3.35;;;2.60;;
67049;SDS011;53955;52.442;13.284;2023-07-22T03:08:40;5.20;;;3.28;;
67049;SDS011;53955;52.442;13.284;2023-07-22T03:11:06;4.72;;;3.40;;
67049;SDS011;53955;52.442;13.284;2023-07-22T03:13:33;4.00;;;3.28;;
67049;SDS011;53955;52.442;13.284;2023-07-22T03:16:00;5.57;;;3.03;;
67049;SDS011;53955;52.442;13.284;2023-07-22T03:18:29;5.57;;;3.10;;
67049;SDS011;53955;52.442;13.284;2023-07-22T03:20:55;4.32;;;2.90;;
67049;SDS011;53955;52.442;13.284;2023-07-22T03:23:23;6.38;;;2.78;;
67049;SDS011;53955;52.442;13.284;2023-07-22T03:25:50;5.38;;;3.88;;
67049;SDS011;53955;52.442;13.284;2023-07-22T03:28:16;5.05;;;2.63;;
67049;SDS011;53955;52.442;13.284;2023-07-22T03:30:43;3.75;;;2.72;;
67049;SDS011;53955;52.442;13.284;2023-07-22T03:33:10;5.72;;;3.25;;
67049;SDS011;53955;52.442;13.284;2023-07-22T03:35:36;5.32;;;2.90;;
67049;SDS011;53955;52.442;13.284;2023-07-22T03:38:02;4.30;;;2.60;;
67049;SDS011;53955;52.442;13.284;2023-07-22T03:40:31;4.57;;;2.97;;
67049;SDS011;53955;52.442;13.284;2023-07-22T03:42:57;3.45;;;2.75;;
67049;SDS011;53955;52.442;13.284;2023-07-22T03:45:24;5.15;;;2.72;;
67049;SDS011;53955;52.442;13.284;2023-07-22T03:47:51;5.00;;;2.78;;
67049;SDS011;53955;52.442;13.284;2023-07-22T03:50:19;6.90;;;3.05;;
67049;SDS011;53955;52.442;13.284;2023-07-22T03:52:45;4.38;;;2.90;;
67049;SDS011;53955;52.442;13.284;2023-07-22T03:55:12;3.92;;;2.65;;
67049;SDS011;53955;52.442;13.284;2023-07-22T03:57:40;3.92;;;2.58;;
67049;SDS011;53955;52.442;13.284;2023-07-22T04:00:07;3.53;;;2.42;;
67049;SDS011;53955;52.442;13.284;2023-07-22T04:02:35;4.75;;;2.45;;
67049;SDS011;53955;52.442;13.284;2023-07-22T04:05:02;4.90;;;2.60;;
67049;SDS011;53955;52.442;13.284;2023-07-22T04:07:29;9.35;;;2.63;;
67049;SDS011;53955;52.442;13.284;2023-07-22T04:09:55;3.95;;;2.58;;
67049;SDS011;53955;52.442;13.284;2023-07-22T04:12:22;3.15;;;2.25;;
67049;SDS011;53955;52.442;13.284;2023-07-22T04:14:50;4.65;;;2.60;;
67049;SDS011;53955;52.442;13.284;2023-07-22T04:17:17;6.18;;;2.80;;
67049;SDS011;53955;52.442;13.284;2023-07-22T04:19:43;3.47;;;2.50;;
67049;SDS011;53955;52.442;13.284;2023-07-22T04:22:10;8.57;;;2.97;;
67049;SDS011;53955;52.442;13.284;2023-07-22T04:24:37;3.63;;;2.25;;
67049;SDS011;53955;52.442;13.284;2023-07-22T04:27:03;3.65;;;2.50;;
67049;SDS011;53955;52.442;13.284;2023-07-22T04:29:30;3.47;;;2.47;;
67049;SDS011;53955;52.442;13.284;2023-07-22T04:31:59;5.78;;;2.70;;
67049;SDS011;53955;52.442;13.284;2023-07-22T04:34:28;3.67;;;2.70;;
67049;SDS011;53955;52.442;13.284;2023-07-22T04:36:55;4.90;;;2.60;;
67049;SDS011;53955;52.442;13.284;2023-07-22T04:39:22;4.30;;;2.80;;
67049;SDS011;53955;52.442;13.284;2023-07-22T04:41:49;3.40;;;2.50;;
67049;SDS011;53955;52.442;13.284;2023-07-22T04:44:16;5.57;;;2.67;;
67049;SDS011;53955;52.442;13.284;2023-07-22T04:46:43;3.70;;;2.58;;
67049;SDS011;53955;52.442;13.284;2023-07-22T04:49:11;4.03;;;2.47;;
67049;SDS011;53955;52.442;13.284;2023-07-22T04:51:38;4.47;;;2.50;;
67049;SDS011;53955;52.442;13.284;2023-07-22T04:54:05;4.00;;;2.40;;
67049;SDS011;53955;52.442;13.284;2023-07-22T04:58:58;3.73;;;2.40;;
67049;SDS011;53955;52.442;13.284;2023-07-22T05:08:48;5.13;;;2.08;;
67049;SDS011;53955;52.442;13.284;2023-07-22T05:11:15;8.52;;;2.25;;
67049;SDS011;53955;52.442;13.284;2023-07-22T05:16:09;6.75;;;2.33;;
67049;SDS011;53955;52.442;13.284;2023-07-22T05:18:36;4.60;;;2.60;;
67049;SDS011;53955;52.442;13.284;2023-07-22T05:21:03;5.22;;;2.92;;
67049;SDS011;53955;52.442;13.284;2023-07-22T05:23:31;4.95;;;2.90;;
67049;SDS011;53955;52.442;13.284;2023-07-22T05:25:58;7.10;;;2.72;;
67049;SDS011;53955;52.442;13.284;2023-07-22T05:28:24;3.65;;;2.33;;
67049;SDS011;53955;52.442;13.284;2023-07-22T05:30:51;6.30;;;2.83;;
67049;SDS011;53955;52.442;13.284;2023-07-22T05:33:20;5.85;;;2.75;;
67049;SDS011;53955;52.442;13.284;2023-07-22T05:35:47;4.80;;;2.70;;
67049;SDS011;53955;52.442;13.284;2023-07-22T05:38:13;4.65;;;2.92;;
67049;SDS011;53955;52.442;13.284;2023-07-22T05:40:41;4.80;;;2.78;;
67049;SDS011;53955;52.442;13.284;2023-07-22T05:43:08;5.82;;;3.08;;
67049;SDS011;53955;52.442;13.284;2023-07-22T05:45:34;5.57;;;3.08;;
67049;SDS011;53955;52.442;13.284;2023-07-22T05:48:01;5.65;;;3.30;;
67049;SDS011;53955;52.442;13.284;2023-07-22T05:50:27;6.45;;;3.25;;
67049;SDS011;53955;52.442;13.284;2023-07-22T05:52:54;7.97;;;3.05;;
67049;SDS011;53955;52.442;13.284;2023-07-22T05:55:21;5.25;;;2.60;;
67049;SDS011;53955;52.442;13.284;2023-07-22T05:57:49;7.00;;;3.08;;
67049;SDS011;53955;52.442;13.284;2023-07-22T06:00:15;6.25;;;3.25;;
67049;SDS011;53955;52.442;13.284;2023-07-22T06:02:42;6.95;;;3.00;;
67049;SDS011;53955;52.442;13.284;2023-07-22T06:05:09;7.65;;;2.95;;
67049;SDS011;53955;52.442;13.284;2023-07-22T06:07:35;6.75;;;2.75;;
67049;SDS011;53955;52.442;13.284;2023-07-22T06:10:02;5.33;;;3.50;;
67049;SDS011;53955;52.442;13.284;2023-07-22T06:12:29;6.28;;;2.58;;
67049;SDS011;53955;52.442;13.284;2023-07-22T06:14:57;5.13;;;2.70;;
67049;SDS011;53955;52.442;13.284;2023-07-22T06:17:24;7.30;;;2.80;;
67049;SDS011;53955;52.442;13.284;2023-07-22T06:19:50;5.00;;;2.80;;
67049;SDS011;53955;52.442;13.284;2023-07-22T06:22:17;6.30;;;2.40;;
67049;SDS011;53955;52.442;13.284;2023-07-22T06:24:43;4.95;;;2.63;;
67049;SDS011;53955;52.442;13.284;2023-07-22T06:27:10;4.80;;;2.85;;
67049;SDS011;53955;52.442;13.284;2023-07-22T06:29:37;5.63;;;2.70;;
67049;SDS011;53955;52.442;13.284;2023-07-22T06:32:05;5.03;;;2.53;;
67049;SDS011;53955;52.442;13.284;2023-07-22T06:34:32;4.82;;;2.75;;
67049;SDS011;53955;52.442;13.284;2023-07-22T06:36:59;6.25;;;2.58;;
67049;SDS011;53955;52.442;13.284;2023-07-22T06:39:26;5.85;;;2.78;;
67049;SDS011;53955;52.442;13.284;2023-07-22T06:41:52;4.60;;;2.55;;
67049;SDS011;53955;52.442;13.284;2023-07-22T06:44:19;8.93;;;2.80;;
67049;SDS011;53955;52.442;13.284;2023-07-22T06:46:46;4.97;;;2.10;;
67049;SDS011;53955;52.442;13.284;2023-07-22T06:49:14;7.20;;;2.92;;
67049;SDS011;53955;52.442;13.284;2023-07-22T06:51:40;7.63;;;2.33;;
67049;SDS011;53955;52.442;13.284;2023-07-22T06:54:07;5.47;;;2.60;;
67049;SDS011;53955;52.442;13.284;2023-07-22T06:56:33;4.97;;;2.83;;
67049;SDS011;53955;52.442;13.284;2023-07-22T06:59:00;5.78;;;2.58;;
67049;SDS011;53955;52.442;13.284;2023-07-22T07:01:27;6.82;;;2.80;;
67049;SDS011;53955;52.442;13.284;2023-07-22T07:03:53;5.20;;;2.60;;
67049;SDS011;53955;52.442;13.284;2023-07-22T07:06:21;6.13;;;2.70;;
67049;SDS011;53955;52.442;13.284;2023-07-22T07:08:48;5.82;;;2.97;;
67049;SDS011;53955;52.442;13.284;2023-07-22T07:11:14;4.97;;;2.15;;
67049;SDS011;53955;52.442;13.284;2023-07-22T07:13:41;5.80;;;2.83;;
67049;SDS011;53955;52.442;13.284;2023-07-22T07:16:20;5.20;;;2.80;;
67049;SDS011;53955;52.442;13.284;2023-07-22T07:18:48;7.00;;;2.92;;
67049;SDS011;53955;52.442;13.284;2023-07-22T07:21:15;5.38;;;2.58;;
67049;SDS011;53955;52.442;13.284;2023-07-22T07:23:43;4.55;;;2.70;;
67049;SDS011;53955;52.442;13.284;2023-07-22T07:26:10;4.53;;;2.63;;
67049;SDS011;53955;52.442;13.284;2023-07-22T07:28:37;7.47;;;3.03;;
67049;SDS011;53955;52.442;13.284;2023-07-22T07:31:04;5.72;;;3.17;;
67049;SDS011;53955;52.442;13.284;2023-07-22T07:33:31;5.43;;;2.92;;
67049;SDS011;53955;52.442;13.284;2023-07-22T07:35:57;7.40;;;2.80;;
67049;SDS011;53955;52.442;13.284;2023-07-22T07:38:24;7.45;;;2.92;;
67049;SDS011;53955;52.442;13.284;2023-07-22T07:40:52;4.88;;;2.60;;
67049;SDS011;53955;52.442;13.284;2023-07-22T07:43:21;5.50;;;3.00;;
67049;SDS011;53955;52.442;13.284;2023-07-22T07:45:48;4.30;;;2.63;;
67049;SDS011;53955;52.442;13.284;2023-07-22T07:48:14;4.95;;;2.70;;
67049;SDS011;53955;52.442;13.284;2023-07-22T07:50:41;4.68;;;2.60;;
67049;SDS011;53955;52.442;13.284;2023-07-22T07:53:08;4.47;;;2.95;;
67049;SDS011;53955;52.442;13.284;2023-07-22T07:55:34;6.07;;;2.28;;
67049;SDS011;53955;52.442;13.284;2023-07-22T07:58:02;5.10;;;2.97;;
67049;SDS011;53955;52.442;13.284;2023-07-22T08:00:29;5.63;;;3.53;;
67049;SDS011;53955;52.442;13.284;2023-07-22T08:02:56;5.72;;;2.85;;
67049;SDS011;53955;52.442;13.284;2023-07-22T08:05:22;5.88;;;3.38;;
67049;SDS011;53955;52.442;13.284;2023-07-22T08:07:49;6.05;;;3.05;;
67049;SDS011;53955;52.442;13.284;2023-07-22T08:10:15;4.78;;;2.92;;
67049;SDS011;53955;52.442;13.284;2023-07-22T08:12:43;5.70;;;3.22;;
67049;SDS011;53955;52.442;13.284;2023-07-22T08:15:11;5.25;;;3.15;;
67049;SDS011;53955;52.442;13.284;2023-07-22T08:17:37;5.70;;;2.95;;
67049;SDS011;53955;52.442;13.284;2023-07-22T08:20:04;7.82;;;3.28;;
67049;SDS011;53955;52.442;13.284;2023-07-22T08:22:32;7.13;;;2.70;;
67049;SDS011;53955;52.442;13.284;2023-07-22T08:24:59;4.70;;;2.60;;
67049;SDS011;53955;52.442;13.284;2023-07-22T08:27:25;5.15;;;3.00;;
67049;SDS011;53955;52.442;13.284;2023-07-22T08:29:52;4.60;;;2.80;;
67049;SDS011;53955;52.442;13.284;2023-07-22T08:32:21;5.15;;;3.28;;
67049;SDS011;53955;52.442;13.284;2023-07-22T08:34:47;11.27;;;3.47;;
67049;SDS011;53955;52.442;13.284;2023-07-22T08:37:14;4.93;;;2.45;;
67049;SDS011;53955;52.442;13.284;2023-07-22T08:39:40;6.53;;;2.80;;
67049;SDS011;53955;52.442;13.284;2023-07-22T08:42:07;4.93;;;2.80;;
67049;SDS011;53955;52.442;13.284;2023-07-22T08:44:34;7.53;;;3.40;;
67049;SDS011;53955;52.442;13.284;2023-07-22T08:47:04;5.85;;;3.00;;
67049;SDS011;53955;52.442;13.284;2023-07-22T08:49:35;7.40;;;2.72;;
67049;SDS011;53955;52.442;13.284;2023-07-22T08:52:01;8.60;;;3.00;;
67049;SDS011;53955;52.442;13.284;2023-07-22T08:54:28;7.10;;;3.35;;
67049;SDS011;53955;52.442;13.284;2023-07-22T08:56:55;7.60;;;3.00;;
67049;SDS011;53955;52.442;13.284;2023-07-22T08:59:22;5.00;;;2.80;;
67049;SDS011;53955;52.442;13.284;2023-07-22T09:01:50;8.50;;;3.13;;
67049;SDS011;53955;52.442;13.284;2023-07-22T09:04:17;7.53;;;3.20;;
67049;SDS011;53955;52.442;13.284;2023-07-22T09:06:46;8.25;;;3.10;;
67049;SDS011;53955;52.442;13.284;2023-07-22T09:09:14;4.90;;;3.13;;
67049;SDS011;53955;52.442;13.284;2023-07-22T09:11:41;4.53;;;2.95;;
67049;SDS011;53955;52.442;13.284;2023-07-22T09:14:08;5.25;;;2.75;;
67049;SDS011;53955;52.442;13.284;2023-07-22T09:16:35;7.28;;;2.92;;
67049;SDS011;53955;52.442;13.284;2023-07-22T09:19:03;6.50;;;2.97;;
67049;SDS011;53955;52.442;13.284;2023-07-22T09:21:30;6.20;;;3.10;;
67049;SDS011;53955;52.442;13.284;2023-07-22T09:24:02;5.70;;;3.30;;
67049;SDS011;53955;52.442;13.284;2023-07-22T09:26:45;6.43;;;2.90;;
67049;SDS011;53955;52.442;13.284;2023-07-22T09:29:11;5.97;;;2.70;;
67049;SDS011;53955;52.442;13.284;2023-07-22T09:31:48;4.20;;;2.72;;
67049;SDS011;53955;52.442;13.284;2023-07-22T09:34:15;7.88;;;2.80;;
67049;SDS011;53955;52.442;13.284;2023-07-22T09:36:51;4.80;;;2.65;;
67049;SDS011;53955;52.442;13.284;2023-07-22T09:39:19;4.18;;;2.30;;
67049;SDS011;53955;52.442;13.284;2023-07-22T09:41:46;3.33;;;2.25;;
67049;SDS011;53955;52.442;13.284;2023-07-22T09:44:13;4.32;;;2.60;;
67049;SDS011;53955;52.442;13.284;2023-07-22T09:46:40;5.28;;;2.63;;
67049;SDS011;53955;52.442;13.284;2023-07-22T09:49:07;3.38;;;2.10;;
67049;SDS011;53955;52.442;13.284;2023-07-22T09:51:35;6.07;;;2.75;;
67049;SDS011;53955;52.442;13.284;2023-07-22T09:54:03;4.97;;;2.35;;
67049;SDS011;53955;52.442;13.284;2023-07-22T09:56:32;4.20;;;2.55;;
67049;SDS011;53955;52.442;13.284;2023-07-22T09:59:08;4.72;;;2.45;;
67049;SDS011;53955;52.442;13.284;2023-07-22T10:01:37;8.65;;;2.53;;
67049;SDS011;53955;52.442;13.284;2023-07-22T10:04:05;5.63;;;2.80;;
67049;SDS011;53955;52.442;13.284;2023-07-22T10:06:32;5.63;;;2.58;;
67049;SDS011;53955;52.442;13.284;2023-07-22T10:08:59;5.20;;;2.67;;
67049;SDS011;53955;52.442;13.284;2023-07-22T10:11:33;6.75;;;2.40;;
67049;SDS011;53955;52.442;13.284;2023-07-22T10:14:01;4.15;;;2.50;;
67049;SDS011;53955;52.442;13.284;2023-07-22T10:16:28;6.18;;;3.35;;
67049;SDS011;53955;52.442;13.284;2023-07-22T10:18:55;4.05;;;2.30;;
67049;SDS011;53955;52.442;13.284;2023-07-22T10:21:22;8.52;;;3.10;;
67049;SDS011;53955;52.442;13.284;2023-07-22T10:23:50;4.72;;;2.53;;
67049;SDS011;53955;52.442;13.284;2023-07-22T10:26:18;6.20;;;3.10;;
67049;SDS011;53955;52.442;13.284;2023-07-22T10:28:49;5.05;;;2.92;;
67049;SDS011;53955;52.442;13.284;2023-07-22T10:31:16;5.25;;;2.92;;
67049;SDS011;53955;52.442;13.284;2023-07-22T10:33:44;6.20;;;2.88;;
67049;SDS011;53955;52.442;13.284;2023-07-22T10:36:13;6.50;;;2.78;;
67049;SDS011;53955;52.442;13.284;2023-07-22T10:38:41;5.45;;;2.78;;
67049;SDS011;53955;52.442;13.284;2023-07-22T10:41:11;4.97;;;2.75;;
67049;SDS011;53955;52.442;13.284;2023-07-22T10:43:39;5.53;;;3.17;;
67049;SDS011;53955;52.442;13.284;2023-07-22T10:46:09;6.03;;;2.80;;
67049;SDS011;53955;52.442;13.284;2023-07-22T10:48:38;4.75;;;2.72;;
67049;SDS011;53955;52.442;13.284;2023-07-22T10:51:07;6.05;;;3.33;;
67049;SDS011;53955;52.442;13.284;2023-07-22T10:53:37;7.38;;;2.80;;
67049;SDS011;53955;52.442;13.284;2023-07-22T10:56:16;5.18;;;2.75;;
67049;SDS011;53955;52.442;13.284;2023-07-22T10:58:55;6.45;;;2.97;;
67049;SDS011;53955;52.442;13.284;2023-07-22T11:01:34;6.30;;;3.00;;
67049;SDS011;53955;52.442;13.284;2023-07-22T11:04:08;6.47;;;2.88;;
67049;SDS011;53955;52.442;13.284;2023-07-22T11:06:36;6.05;;;3.10;;
67049;SDS011;53955;52.442;13.284;2023-07-22T11:09:03;6.70;;;2.80;;
67049;SDS011;53955;52.442;13.284;2023-07-22T11:11:37;5.45;;;3.00;;
67049;SDS011;53955;52.442;13.284;2023-07-22T11:14:14;5.85;;;3.20;;
67049;SDS011;53955;52.442;13.284;2023-07-22T11:16:44;5.25;;;3.00;;
67049;SDS011;53955;52.442;13.284;2023-07-22T11:19:12;6.03;;;3.20;;
67049;SDS011;53955;52.442;13.284;2023-07-22T11:21:39;6.00;;;3.55;;
67049;SDS011;53955;52.442;13.284;2023-07-22T11:24:06;5.18;;;3.03;;
67049;SDS011;53955;52.442;13.284;2023-07-22T11:26:33;6.50;;;2.75;;
67049;SDS011;53955;52.442;13.284;2023-07-22T11:29:00;7.25;;;2.90;;
67049;SDS011;53955;52.442;13.284;2023-07-22T11:31:31;6.00;;;2.70;;
67049;SDS011;53955;52.442;13.284;2023-07-22T11:34:00;5.32;;;3.05;;
67049;SDS011;53955;52.442;13.284;2023-07-22T11:36:26;4.47;;;2.75;;
67049;SDS011;53955;52.442;13.284;2023-07-22T11:38:53;4.15;;;2.50;;
67049;SDS011;53955;52.442;13.284;2023-07-22T11:41:20;4.80;;;2.60;;
67049;SDS011;53955;52.442;13.284;2023-07-22T11:43:48;4.53;;;2.78;;
67049;SDS011;53955;52.442;13.284;2023-07-22T11:46:15;6.30;;;3.22;;
67049;SDS011;53955;52.442;13.284;2023-07-22T11:48:48;4.88;;;2.90;;
67049;SDS011;53955;52.442;13.284;2023-07-22T11:51:17;5.90;;;2.90;;
67049;SDS011;53955;52.442;13.284;2023-07-22T11:53:46;5.70;;;2.90;;
67049;SDS011;53955;52.442;13.284;2023-07-22T11:56:17;6.10;;;3.28;;
67049;SDS011;53955;52.442;13.284;2023-07-22T11:58:47;5.53;;;2.95;;
67049;SDS011;53955;52.442;13.284;2023-07-22T12:01:15;5.03;;;2.72;;
67049;SDS011;53955;52.442;13.284;2023-07-22T12:03:41;5.40;;;3.08;;
67049;SDS011;53955;52.442;13.284;2023-07-22T12:06:08;4.78;;;2.83;;
67049;SDS011;53955;52.442;13.284;2023-07-22T12:08:36;7.30;;;3.05;;
67049;SDS011;53955;52.442;13.284;2023-07-22T12:11:08;7.82;;;3.50;;
67049;SDS011;53955;52.442;13.284;2023-07-22T12:13:41;5.07;;;2.65;;
67049;SDS011;53955;52.442;13.284;2023-07-22T12:16:11;8.52;;;3.58;;
67049;SDS011;53955;52.442;13.284;2023-07-22T12:18:41;6.05;;;3.10;;
67049;SDS011;53955;52.442;13.284;2023-07-22T12:21:08;6.47;;;3.08;;
67049;SDS011;53955;52.442;13.284;2023-07-22T12:23:36;5.28;;;2.90;;
67049;SDS011;53955;52.442;13.284;2023-07-22T12:26:03;5.40;;;3.35;;
67049;SDS011;53955;52.442;13.284;2023-07-22T12:28:30;6.70;;;3.40;;
67049;SDS011;53955;52.442;13.284;2023-07-22T12:30:57;7.20;;;3.25;;
67049;SDS011;53955;52.442;13.284;2023-07-22T12:33:23;5.25;;;3.22;;
67049;SDS011;53955;52.442;13.284;2023-07-22T12:35:52;5.85;;;2.75;;
67049;SDS011;53955;52.442;13.284;2023-07-22T12:38:19;6.57;;;3.58;;
67049;SDS011;53955;52.442;13.284;2023-07-22T12:40:47;4.90;;;2.90;;
67049;SDS011;53955;52.442;13.284;2023-07-22T12:43:14;5.65;;;3.03;;
67049;SDS011;53955;52.442;13.284;2023-07-22T12:45:41;4.88;;;2.92;;
67049;SDS011;53955;52.442;13.284;2023-07-22T12:48:08;5.85;;;2.85;;
67049;SDS011;53955;52.442;13.284;2023-07-22T12:50:35;6.25;;;3.35;;
67049;SDS011;53955;52.442;13.284;2023-07-22T12:53:02;5.03;;;2.97;;
67049;SDS011;53955;52.442;13.284;2023-07-22T12:55:29;6.38;;;2.83;;
67049;SDS011;53955;52.442;13.284;2023-07-22T12:57:57;4.40;;;2.63;;
67049;SDS011;53955;52.442;13.284;2023-07-22T13:00:23;5.22;;;3.22;;
67049;SDS011;53955;52.442;13.284;2023-07-22T13:02:50;6.65;;;2.80;;
67049;SDS011;53955;52.442;13.284;2023-07-22T13:05:17;5.05;;;2.85;;
67049;SDS011;53955;52.442;13.284;2023-07-22T13:07:44;5.32;;;3.10;;
67049;SDS011;53955;52.442;13.284;2023-07-22T13:10:10;8.27;;;3.10;;
67049;SDS011;53955;52.442;13.284;2023-07-22T13:12:41;7.63;;;2.92;;
67049;SDS011;53955;52.442;13.284;2023-07-22T13:15:09;6.75;;;3.30;;
67049;SDS011;53955;52.442;13.284;2023-07-22T13:17:36;6.38;;;2.78;;
67049;SDS011;53955;52.442;13.284;2023-07-22T13:20:03;7.60;;;3.25;;
67049;SDS011;53955;52.442;13.284;2023-07-22T13:22:31;7.95;;;3.15;;
67049;SDS011;53955;52.442;13.284;2023-07-22T13:24:58;10.05;;;3.20;;
67049;SDS011;53955;52.442;13.284;2023-07-22T13:27:25;9.55;;;3.42;;
67049;SDS011;53955;52.442;13.284;2023-07-22T13:29:51;8.05;;;2.97;;
67049;SDS011;53955;52.442;13.284;2023-07-22T13:32:19;4.25;;;3.03;;
67049;SDS011;53955;52.442;13.284;2023-07-22T13:34:46;5.43;;;3.10;;
67049;SDS011;53955;52.442;13.284;2023-07-22T13:37:12;4.95;;;3.05;;
67049;SDS011;53955;52.442;13.284;2023-07-22T13:39:39;5.05;;;2.72;;
67049;SDS011;53955;52.442;13.284;2023-07-22T13:42:06;6.88;;;2.92;;
67049;SDS011;53955;52.442;13.284;2023-07-22T13:44:32;4.50;;;2.85;;
67049;SDS011;53955;52.442;13.284;2023-07-22T13:46:59;4.80;;;2.80;;
67049;SDS011;53955;52.442;13.284;2023-07-22T13:49:27;5.53;;;3.00;;
67049;SDS011;53955;52.442;13.284;2023-07-22T13:51:54;5.63;;;3.10;;
67049;SDS011;53955;52.442;13.284;2023-07-22T13:54:21;6.45;;;3.17;;
67049;SDS011;53955;52.442;13.284;2023-07-22T13:56:50;8.15;;;3.13;;
67049;SDS011;53955;52.442;13.284;2023-07-22T13:59:17;6.97;;;3.13;;
67049;SDS011;53955;52.442;13.284;2023-07-22T14:01:44;9.30;;;3.38;;
67049;SDS011;53955;52.442;13.284;2023-07-22T14:04:11;10.65;;;2.78;;
67049;SDS011;53955;52.442;13.284;2023-07-22T14:06:39;5.50;;;3.13;;
67049;SDS011;53955;52.442;13.284;2023-07-22T14:09:06;5.60;;;3.20;;
67049;SDS011;53955;52.442;13.284;2023-07-22T14:11:33;5.20;;;2.72;;
67049;SDS011;53955;52.442;13.284;2023-07-22T14:13:59;6.53;;;2.70;;
67049;SDS011;53955;52.442;13.284;2023-07-22T14:16:26;6.45;;;3.30;;
67049;SDS011;53955;52.442;13.284;2023-07-22T14:18:53;8.80;;;3.08;;
67049;SDS011;53955;52.442;13.284;2023-07-22T14:21:20;5.55;;;3.03;;
67049;SDS011;53955;52.442;13.284;2023-07-22T14:23:48;4.70;;;2.60;;
67049;SDS011;53955;52.442;13.284;2023-07-22T14:26:14;4.88;;;2.95;;
67049;SDS011;53955;52.442;13.284;2023-07-22T14:28:41;5.22;;;3.08;;
67049;SDS011;53955;52.442;13.284;2023-07-22T14:31:08;4.00;;;2.97;;
67049;SDS011;53955;52.442;13.284;2023-07-22T14:33:35;7.22;;;3.40;;
67049;SDS011;53955;52.442;13.284;2023-07-22T14:36:01;6.05;;;3.17;;
67049;SDS011;53955;52.442;13.284;2023-07-22T14:38:28;6.40;;;2.92;;
67049;SDS011;53955;52.442;13.284;2023-07-22T14:40:56;4.88;;;2.95;;
67049;SDS011;53955;52.442;13.284;2023-07-22T14:43:23;5.20;;;3.05;;
67049;SDS011;53955;52.442;13.284;2023-07-22T14:45:49;6.68;;;3.15;;
67049;SDS011;53955;52.442;13.284;2023-07-22T14:48:16;5.50;;;3.22;;